Time;durP1;ratioP1;P1;durP2;ratioP2;P2;SDS_P1;SDS_P2;PMS_P1;PMS_P2;Temp;Humidity;BMP_temperature;BMP_pressure;BME280_temperature;BME280_humidity;BME280_pressure;Samples;Min_cycle;Max_cycle;Signal;HPM_P1;HPM_P2
2022/03/03 00:02:00;;;;;;;74.03;37.63;;;1.80;99.90;;;;;;5014900;28;20130;-86
2022/03/03 00:04:25;;;;;;;66.68;35.40;;;1.80;99.90;;;;;;5021140;28;20049;-87
2022/03/03 00:06:51;;;;;;;72.90;36.90;;;1.80;99.90;;;;;;5014568;28;20041;-87
2022/03/03 00:09:16;;;;;;;73.93;35.92;;;1.70;99.90;;;;;;5029288;28;20146;-86
2022/03/03 00:11:42;;;;;;;68.00;35.30;;;1.70;99.90;;;;;;5034413;28;20036;-87
2022/03/03 00:14:07;;;;;;;69.87;35.63;;;1.70;99.90;;;;;;5011756;28;20037;-87
2022/03/03 00:16:33;;;;;;;69.80;36.53;;;1.80;99.90;;;;;;5050896;28;20035;-87
2022/03/03 00:18:59;;;;;;;73.88;36.65;;;1.70;99.90;;;;;;5033845;28;20422;-87
2022/03/03 00:21:25;;;;;;;68.03;36.10;;;1.70;99.90;;;;;;5033001;28;20034;-87
2022/03/03 00:23:50;;;;;;;76.35;36.40;;;1.70;99.90;;;;;;5033190;28;20099;-87
2022/03/03 00:26:16;;;;;;;67.10;36.35;;;1.60;99.90;;;;;;5010304;28;20044;-87
2022/03/03 00:28:42;;;;;;;73.00;37.33;;;1.60;99.90;;;;;;5023721;28;20119;-87
2022/03/03 00:31:07;;;;;;;71.32;35.50;;;1.60;99.90;;;;;;5018551;28;20116;-87
2022/03/03 00:33:33;;;;;;;71.90;36.20;;;1.50;99.90;;;;;;5023343;28;20037;-86
2022/03/03 00:35:59;;;;;;;70.40;36.05;;;1.50;99.90;;;;;;5035466;28;20033;-87
2022/03/03 00:38:25;;;;;;;69.95;35.58;;;1.40;99.90;;;;;;5018667;28;20037;-87
2022/03/03 00:40:51;;;;;;;69.60;35.40;;;1.40;99.90;;;;;;5018287;28;20029;-87
2022/03/03 00:43:16;;;;;;;69.70;34.17;;;1.40;99.90;;;;;;5033536;28;20037;-86
2022/03/03 00:45:42;;;;;;;67.43;35.97;;;1.40;99.90;;;;;;5051497;28;20410;-87
2022/03/03 00:48:07;;;;;;;73.03;36.77;;;1.30;99.90;;;;;;5030819;28;20033;-87
2022/03/03 00:50:33;;;;;;;74.55;36.97;;;1.30;99.90;;;;;;5035151;28;20040;-87
2022/03/03 00:52:59;;;;;;;68.23;36.20;;;1.80;99.90;;;;;;5026729;28;20046;-88
2022/03/03 00:55:25;;;;;;;66.83;34.47;;;1.30;99.90;;;;;;5034214;28;20098;-88
2022/03/03 00:57:51;;;;;;;69.70;35.80;;;1.30;99.90;;;;;;5024627;28;20033;-87
2022/03/03 01:00:18;;;;;;;66.57;34.40;;;1.30;99.90;;;;;;5018513;28;20560;-87
2022/03/03 01:02:45;;;;;;;70.63;36.73;;;1.20;99.90;;;;;;5031859;28;20033;-87
2022/03/03 01:05:11;;;;;;;64.50;35.03;;;1.20;99.90;;;;;;5018281;28;20048;-87
2022/03/03 01:07:36;;;;;;;70.23;35.57;;;1.20;99.90;;;;;;5032181;28;20429;-87
2022/03/03 01:10:04;;;;;;;73.47;37.17;;;1.20;99.90;;;;;;5032421;28;20037;-87
2022/03/03 01:12:29;;;;;;;72.03;36.33;;;1.20;99.90;;;;;;5024743;28;20045;-87
2022/03/03 01:14:55;;;;;;;69.53;35.97;;;1.20;99.90;;;;;;5000982;28;20392;-87
2022/03/03 01:17:20;;;;;;;66.33;34.60;;;1.10;99.90;;;;;;5017835;28;20036;-86
2022/03/03 01:19:46;;;;;;;64.50;33.50;;;1.10;99.90;;;;;;5000076;28;20088;-86
2022/03/03 01:22:11;;;;;;;63.43;32.87;;;1.00;99.90;;;;;;5033362;28;20043;-86
2022/03/03 01:24:38;;;;;;;58.40;29.70;;;1.00;99.90;;;;;;5020981;28;20045;-87
2022/03/03 01:27:03;;;;;;;57.50;30.87;;;0.90;99.90;;;;;;5026618;28;20486;-86
2022/03/03 01:29:29;;;;;;;59.37;31.67;;;0.70;99.90;;;;;;5030404;28;20100;-87
2022/03/03 01:31:54;;;;;;;59.83;32.13;;;0.70;99.90;;;;;;5031919;28;20033;-87
2022/03/03 01:34:20;;;;;;;63.00;32.30;;;0.60;99.90;;;;;;5031058;28;20033;-87
2022/03/03 01:36:45;;;;;;;65.07;31.67;;;0.50;99.90;;;;;;5022765;28;20033;-87
2022/03/03 01:39:11;;;;;;;63.03;32.40;;;0.40;99.90;;;;;;5017052;28;20048;-86
2022/03/03 01:41:38;;;;;;;61.10;31.03;;;0.40;99.90;;;;;;5034962;28;20116;-87
2022/03/03 01:44:04;;;;;;;63.73;32.43;;;0.20;99.90;;;;;;5022058;28;20426;-87
2022/03/03 01:46:30;;;;;;;62.80;31.33;;;0.10;99.90;;;;;;5033328;28;20094;-86
2022/03/03 01:48:56;;;;;;;63.97;33.07;;;0.10;99.90;;;;;;5015786;28;20052;-86
2022/03/03 01:51:22;;;;;;;67.40;33.57;;;0.10;99.90;;;;;;5026694;28;20033;-85
2022/03/03 01:53:47;;;;;;;67.67;33.97;;;0.10;99.90;;;;;;5010880;28;20068;-86
2022/03/03 01:56:14;;;;;;;75.20;35.10;;;0.10;99.90;;;;;;5016696;28;20080;-86
2022/03/03 01:58:40;;;;;;;70.37;34.33;;;0.20;99.90;;;;;;5011444;28;20032;-85
2022/03/03 02:01:06;;;;;;;68.00;33.77;;;0.20;99.90;;;;;;5024917;28;20033;-85
2022/03/03 02:03:32;;;;;;;66.10;34.67;;;0.20;99.90;;;;;;5020300;28;20041;-85
2022/03/03 02:05:58;;;;;;;70.60;35.83;;;0.30;99.90;;;;;;5031668;28;20502;-86
2022/03/03 02:08:24;;;;;;;72.07;36.73;;;0.30;99.90;;;;;;5020888;28;20112;-86
2022/03/03 02:10:53;;;;;;;72.50;34.70;;;0.30;99.90;;;;;;5031079;28;20072;-87
2022/03/03 02:13:19;;;;;;;67.43;34.47;;;0.40;99.90;;;;;;5031262;28;20042;-84
2022/03/03 02:16:03;;;;;;;71.33;35.87;;;0.40;99.90;;;;;;5016232;28;20116;-86
2022/03/03 02:18:29;;;;;;;64.55;32.35;;;0.40;99.90;;;;;;5030579;28;20068;-86
2022/03/03 02:20:54;;;;;;;60.63;32.10;;;0.40;99.90;;;;;;5049015;28;20064;-87
2022/03/03 02:23:20;;;;;;;70.77;34.53;;;0.40;99.90;;;;;;5020545;28;20025;-86
2022/03/03 02:25:46;;;;;;;65.83;33.27;;;0.40;99.90;;;;;;5002934;28;20064;-86
2022/03/03 02:28:12;;;;;;;64.70;32.93;;;0.30;99.90;;;;;;5049597;28;20069;-87
2022/03/03 02:30:37;;;;;;;69.10;33.70;;;0.30;99.90;;;;;;5003095;28;20075;-87
2022/03/03 02:33:03;;;;;;;68.87;34.27;;;0.20;99.90;;;;;;5015051;28;20065;-87
2022/03/03 02:35:29;;;;;;;65.50;31.97;;;0.20;99.90;;;;;;5029834;28;20044;-88
2022/03/03 02:37:55;;;;;;;63.80;31.00;;;0.20;99.90;;;;;;5030341;28;20488;-87
2022/03/03 02:40:20;;;;;;;67.47;32.87;;;0.20;99.90;;;;;;5030978;28;20029;-87
2022/03/03 02:42:51;;;;;;;62.37;32.30;;;0.20;99.90;;;;;;5031750;28;20036;-88
2022/03/03 02:45:17;;;;;;;62.10;30.67;;;0.10;99.90;;;;;;5023085;28;20490;-88
2022/03/03 02:47:45;;;;;;;66.07;32.63;;;0.00;99.90;;;;;;5002153;28;20049;-88
2022/03/03 02:50:11;;;;;;;64.50;32.53;;;-0.10;99.90;;;;;;5012318;28;20036;-88
2022/03/03 02:52:37;;;;;;;66.90;33.13;;;-0.10;99.90;;;;;;5029792;28;20095;-88
2022/03/03 02:55:04;;;;;;;66.47;31.97;;;-0.10;99.90;;;;;;5013847;28;20057;-88
2022/03/03 03:00:15;;;;;;;63.10;32.70;;;-0.10;99.90;;;;;;5028741;28;20459;-88
2022/03/03 03:02:40;;;;;;;66.30;32.87;;;-0.10;99.90;;;;;;5030562;28;20402;-88
2022/03/03 03:05:06;;;;;;;70.63;33.03;;;-0.10;99.90;;;;;;5000400;28;20033;-86
2022/03/03 03:07:33;;;;;;;68.33;33.40;;;-0.20;99.90;;;;;;5035727;28;20024;-87
2022/03/03 03:09:58;;;;;;;63.50;31.90;;;0.20;99.90;;;;;;5021900;28;20037;-88
2022/03/03 03:12:24;;;;;;;64.73;31.50;;;0.00;99.90;;;;;;5020460;28;20037;-86
2022/03/03 03:14:50;;;;;;;66.00;31.47;;;-0.30;99.90;;;;;;5018217;28;20049;-88
2022/03/03 03:17:15;;;;;;;62.20;31.17;;;-0.40;99.90;;;;;;5029368;28;20028;-88
2022/03/03 03:19:41;;;;;;;63.50;31.70;;;-0.50;99.90;;;;;;5049784;28;20049;-87
2022/03/03 03:22:07;;;;;;;61.77;31.90;;;-0.50;99.90;;;;;;5022985;28;20059;-87
2022/03/03 03:24:32;;;;;;;65.33;31.97;;;-0.50;99.90;;;;;;5031267;28;20410;-87
2022/03/03 03:26:58;;;;;;;68.23;34.03;;;-0.50;99.90;;;;;;5018712;28;20032;-87
2022/03/03 03:29:23;;;;;;;64.87;33.47;;;-0.40;99.90;;;;;;5031078;28;20116;-87
2022/03/03 03:31:49;;;;;;;65.93;31.63;;;-0.40;99.90;;;;;;5020054;28;20087;-87
2022/03/03 03:34:15;;;;;;;70.43;34.50;;;-0.40;99.90;;;;;;5031777;28;20507;-87
2022/03/03 03:36:40;;;;;;;67.13;31.73;;;-0.40;99.90;;;;;;5029285;28;20030;-88
2022/03/03 03:39:06;;;;;;;65.33;33.47;;;-0.40;99.90;;;;;;5030565;28;20055;-87
2022/03/03 03:41:31;;;;;;;66.60;32.87;;;-0.30;99.90;;;;;;5029952;28;20037;-87
2022/03/03 03:43:57;;;;;;;72.07;34.30;;;-0.40;99.90;;;;;;5023383;28;20043;-87
2022/03/03 03:46:22;;;;;;;67.73;34.03;;;-0.40;99.90;;;;;;5013079;28;20041;-87
2022/03/03 03:48:48;;;;;;;66.10;33.70;;;-0.30;99.90;;;;;;5030775;28;20490;-87
2022/03/03 03:51:14;;;;;;;64.23;33.43;;;-0.30;99.90;;;;;;5027545;28;20128;-87
2022/03/03 03:53:39;;;;;;;66.90;33.63;;;-0.30;99.90;;;;;;5021796;28;20049;-85
2022/03/03 03:56:05;;;;;;;66.53;32.83;;;-0.30;99.90;;;;;;5012217;28;20042;-88
2022/03/03 03:58:31;;;;;;;70.43;35.03;;;-0.30;99.90;;;;;;5026932;28;20056;-87
2022/03/03 04:00:57;;;;;;;65.73;34.70;;;-0.30;99.90;;;;;;5008188;28;20461;-87
2022/03/03 04:03:22;;;;;;;65.77;33.00;;;-0.30;99.90;;;;;;5030699;28;20049;-87
2022/03/03 04:05:48;;;;;;;61.50;32.23;;;-0.30;99.90;;;;;;5028879;28;20063;-86
2022/03/03 04:08:14;;;;;;;65.17;32.23;;;-0.30;99.90;;;;;;5008024;28;20129;-87
2022/03/03 04:10:39;;;;;;;64.53;32.57;;;-0.30;99.90;;;;;;5031095;28;20044;-87
2022/03/03 04:13:05;;;;;;;67.07;33.10;;;-0.30;99.90;;;;;;5026599;28;20111;-87
2022/03/03 04:15:31;;;;;;;64.57;33.77;;;-0.30;99.90;;;;;;5031047;28;20047;-87
2022/03/03 04:17:57;;;;;;;67.17;33.77;;;-0.30;99.90;;;;;;5010634;28;20083;-87
2022/03/03 04:20:23;;;;;;;62.80;32.33;;;-0.30;99.90;;;;;;5027083;28;20037;-86
2022/03/03 04:22:48;;;;;;;63.60;32.03;;;-0.30;99.90;;;;;;5011463;28;20128;-87
2022/03/03 04:25:14;;;;;;;60.57;32.30;;;-0.30;99.90;;;;;;5029861;28;20068;-87
2022/03/03 04:27:40;;;;;;;58.60;32.53;;;-0.30;99.90;;;;;;5020554;28;20091;-87
2022/03/03 04:30:09;;;;;;;61.47;32.80;;;-0.30;99.90;;;;;;5027080;28;20037;-87
2022/03/03 04:32:35;;;;;;;65.33;33.70;;;-0.30;99.90;;;;;;5004006;28;20040;-88
2022/03/03 04:35:02;;;;;;;62.20;32.50;;;-0.30;99.90;;;;;;5029542;28;20078;-87
2022/03/03 04:37:29;;;;;;;65.90;32.93;;;-0.30;99.90;;;;;;5045672;28;20470;-86
2022/03/03 04:39:54;;;;;;;61.17;32.03;;;-0.30;99.90;;;;;;5028484;28;20104;-87
2022/03/03 04:42:20;;;;;;;59.80;32.13;;;-0.30;99.90;;;;;;5030154;28;20030;-86
2022/03/03 04:44:46;;;;;;;61.77;33.10;;;-0.30;99.90;;;;;;5027734;28;20037;-86
2022/03/03 04:47:11;;;;;;;62.47;32.40;;;-0.30;99.90;;;;;;5017160;28;20106;-87
2022/03/03 04:49:37;;;;;;;64.40;31.87;;;-0.30;99.90;;;;;;5027966;28;20117;-86
2022/03/03 04:52:03;;;;;;;58.70;31.63;;;-0.30;99.90;;;;;;5017157;28;20048;-87
2022/03/03 04:54:29;;;;;;;62.93;31.80;;;-0.40;99.90;;;;;;5028066;28;20048;-87
2022/03/03 04:56:55;;;;;;;57.83;31.30;;;-0.40;99.90;;;;;;5030034;28;20033;-87
2022/03/03 04:59:23;;;;;;;57.50;30.20;;;-0.40;99.90;;;;;;5030470;28;20847;-87
2022/03/03 05:01:49;;;;;;;58.67;31.03;;;-0.50;99.90;;;;;;5018073;28;20061;-87
2022/03/03 05:04:14;;;;;;;57.77;30.53;;;-0.50;99.90;;;;;;5031950;28;20076;-87
2022/03/03 05:06:40;;;;;;;57.37;31.53;;;-0.50;99.90;;;;;;5015356;28;20037;-86
2022/03/03 05:09:06;;;;;;;59.10;30.53;;;-0.50;99.90;;;;;;5001897;28;20044;-87
2022/03/03 05:11:31;;;;;;;56.97;29.23;;;-0.50;99.90;;;;;;5016783;28;20487;-88
2022/03/03 05:13:57;;;;;;;55.93;29.90;;;-0.50;99.90;;;;;;5035148;28;20038;-87
2022/03/03 05:16:23;;;;;;;53.10;28.50;;;-0.60;99.90;;;;;;5029341;28;20037;-88
2022/03/03 05:18:48;;;;;;;55.40;28.80;;;-0.70;99.90;;;;;;5028531;28;20556;-86
2022/03/03 05:21:14;;;;;;;55.10;29.10;;;-0.60;99.90;;;;;;5033161;28;20048;-88
2022/03/03 05:23:39;;;;;;;57.00;28.77;;;-0.60;99.90;;;;;;5025535;28;20120;-87
2022/03/03 05:26:05;;;;;;;55.90;29.63;;;-0.70;99.90;;;;;;5032850;28;20112;-88
2022/03/03 05:28:31;;;;;;;50.63;29.13;;;-0.70;99.90;;;;;;5018202;28;20041;-88
2022/03/03 05:30:57;;;;;;;56.23;28.20;;;-0.70;99.90;;;;;;5039959;28;20076;-87
2022/03/03 05:33:22;;;;;;;56.47;30.03;;;-0.70;99.90;;;;;;5044269;28;20079;-89
2022/03/03 05:35:51;;;;;;;51.77;28.43;;;-0.10;99.90;;;;;;5011175;28;20073;-88
2022/03/03 05:38:17;;;;;;;56.03;29.10;;;-0.70;99.90;;;;;;5030656;28;20045;-88
2022/03/03 05:40:43;;;;;;;48.53;27.13;;;-0.80;99.90;;;;;;5009507;28;20094;-86
2022/03/03 05:43:09;;;;;;;53.37;28.97;;;-0.70;99.90;;;;;;5036190;28;20112;-88
2022/03/03 05:45:35;;;;;;;59.47;30.00;;;-0.80;99.90;;;;;;5046067;28;20113;-89
2022/03/03 05:48:01;;;;;;;54.37;28.47;;;-0.80;99.90;;;;;;5044968;28;20078;-88
2022/03/03 05:50:26;;;;;;;56.83;30.13;;;-0.80;99.90;;;;;;5051786;28;20036;-86
2022/03/03 05:52:53;;;;;;;57.80;29.20;;;-0.80;99.90;;;;;;5033200;28;20029;-88
2022/03/03 05:55:19;;;;;;;52.37;28.73;;;-0.80;99.90;;;;;;5016842;28;20052;-87
2022/03/03 05:57:48;;;;;;;54.73;29.60;;;-0.80;99.90;;;;;;5035341;28;20616;-87
2022/03/03 06:00:16;;;;;;;55.73;29.63;;;-0.80;99.90;;;;;;5018659;28;20048;-87
2022/03/03 06:02:50;;;;;;;52.33;27.97;;;-0.80;99.90;;;;;;5018301;28;20116;-87
2022/03/03 06:05:17;;;;;;;;;;;-0.90;99.90;;;;;;5013341;28;20037;-88
2022/03/03 06:07:45;;;;;;;51.17;26.60;;;-0.90;99.90;;;;;;5018976;28;19951;-87
2022/03/03 06:10:13;;;;;;;50.77;27.57;;;-0.90;99.90;;;;;;5035019;28;20044;-88
2022/03/03 06:12:42;;;;;;;49.33;27.07;;;-1.00;99.90;;;;;;5045319;28;20041;-88
2022/03/03 06:15:09;;;;;;;57.70;28.70;;;-1.00;99.90;;;;;;5016024;28;20095;-87
2022/03/03 06:17:36;;;;;;;55.67;28.27;;;-1.00;99.90;;;;;;5024858;28;20120;-88
2022/03/03 06:20:04;;;;;;;54.63;29.33;;;-1.10;99.90;;;;;;4998999;28;20037;-88
2022/03/03 06:22:29;;;;;;;55.90;29.43;;;-1.00;99.90;;;;;;5018141;28;20088;-89
2022/03/03 06:24:55;;;;;;;58.07;30.20;;;-1.00;99.90;;;;;;5031800;28;20411;-89
2022/03/03 06:27:21;;;;;;;55.27;29.03;;;-1.00;99.90;;;;;;5019163;28;20518;-88
2022/03/03 06:29:46;;;;;;;56.53;29.77;;;-1.00;99.90;;;;;;5006794;28;20561;-90
2022/03/03 06:32:12;;;;;;;55.80;28.77;;;-1.00;99.90;;;;;;5028643;28;20068;-89
2022/03/03 06:34:38;;;;;;;59.83;31.10;;;-1.00;99.90;;;;;;5022713;28;20034;-89
2022/03/03 06:37:04;;;;;;;55.47;28.93;;;-1.00;99.90;;;;;;5033626;28;20037;-86
2022/03/03 06:39:29;;;;;;;56.07;28.50;;;-1.00;99.90;;;;;;5022738;28;20123;-87
2022/03/03 06:41:55;;;;;;;55.27;29.07;;;-1.00;99.90;;;;;;5047212;28;20109;-87
2022/03/03 06:44:21;;;;;;;58.60;29.87;;;-0.90;99.90;;;;;;5018249;28;20044;-86
2022/03/03 06:46:47;;;;;;;54.77;29.60;;;-1.00;99.90;;;;;;5019398;28;20041;-88
2022/03/03 06:49:13;;;;;;;52.70;29.07;;;-0.90;99.90;;;;;;5052686;28;20044;-88
2022/03/03 06:51:49;;;;;;;53.23;28.87;;;-0.90;99.90;;;;;;5035041;28;20040;-88
2022/03/03 06:54:17;;;;;;;57.33;29.80;;;-0.90;99.90;;;;;;5018334;28;20052;-87
2022/03/03 06:56:52;;;;;;;54.17;28.93;;;-0.90;99.90;;;;;;5018424;28;20052;-88
2022/03/03 06:59:21;;;;;;;54.93;29.07;;;-0.90;99.90;;;;;;5035022;28;20037;-87
2022/03/03 07:01:49;;;;;;;59.70;30.50;;;-0.80;99.90;;;;;;5017480;28;20441;-87
2022/03/03 07:04:16;;;;;;;56.90;30.23;;;-0.80;99.90;;;;;;5018029;28;20127;-87
2022/03/03 07:06:43;;;;;;;54.13;29.13;;;-0.70;99.90;;;;;;5018220;28;20052;-87
2022/03/03 07:09:10;;;;;;;53.33;29.13;;;-0.70;99.90;;;;;;5018177;28;20166;-86
2022/03/03 07:11:38;;;;;;;54.10;29.60;;;-0.60;99.90;;;;;;5049963;28;20128;-86
2022/03/03 07:14:04;;;;;;;53.03;29.33;;;-0.60;99.90;;;;;;5023844;28;20052;-86
2022/03/03 07:16:54;;;;;;;56.07;29.77;;;-0.50;99.90;;;;;;5033722;28;20406;-88
2022/03/03 07:19:31;;;;;;;53.00;28.50;;;-0.40;99.90;;;;;;5016304;28;20037;-86
2022/03/03 07:22:20;;;;;;;52.30;28.20;;;-0.40;99.90;;;;;;5014352;28;20430;-86
2022/03/03 07:24:57;;;;;;;53.90;29.37;;;-0.30;99.90;;;;;;5026614;28;20040;-86
2022/03/03 07:27:25;;;;;;;52.33;29.37;;;-0.20;99.90;;;;;;5019187;28;20045;-86
2022/03/03 07:29:56;;;;;;;57.13;30.20;;;-0.10;99.90;;;;;;5031146;28;20037;-85
2022/03/03 07:32:31;;;;;;;52.80;29.50;;;-0.10;99.90;;;;;;5014964;28;20120;-86
2022/03/03 07:35:02;;;;;;;58.07;31.07;;;0.00;99.90;;;;;;4996736;28;20055;-84
2022/03/03 07:37:35;;;;;;;54.70;30.10;;;0.10;99.90;;;;;;5028134;28;20044;-86
2022/03/03 07:40:06;;;;;;;58.55;31.25;;;0.20;99.90;;;;;;5017694;28;20029;-83
2022/03/03 07:42:32;;;;;;;57.07;30.77;;;0.30;99.90;;;;;;5017265;28;20086;-84
2022/03/03 07:44:58;;;;;;;58.37;31.03;;;0.40;99.90;;;;;;5030171;28;20127;-85
2022/03/03 07:47:26;;;;;;;53.93;30.07;;;0.50;99.90;;;;;;5015809;28;20499;-85
2022/03/03 07:49:52;;;;;;;56.97;31.43;;;0.60;99.90;;;;;;5003169;28;20417;-84
2022/03/03 07:52:20;;;;;;;55.20;30.63;;;0.60;99.90;;;;;;5030381;28;20048;-85
2022/03/03 07:54:45;;;;;;;56.77;32.37;;;0.70;99.90;;;;;;5032248;28;20091;-85
2022/03/03 07:57:15;;;;;;;57.90;32.53;;;0.80;99.90;;;;;;5030648;28;20029;-85
2022/03/03 07:59:48;;;;;;;56.33;31.87;;;0.90;99.90;;;;;;5015280;28;20106;-84
2022/03/03 08:02:23;;;;;;;56.23;31.53;;;1.10;99.90;;;;;;5016894;28;20033;-83
2022/03/03 08:04:50;;;;;;;58.10;31.73;;;1.10;99.90;;;;;;5031989;28;20076;-83
2022/03/03 08:07:17;;;;;;;55.40;31.80;;;1.20;99.90;;;;;;5031155;28;20037;-84
2022/03/03 08:09:46;;;;;;;58.83;32.47;;;1.30;99.90;;;;;;5016538;28;20111;-84
2022/03/03 08:12:14;;;;;;;53.17;31.43;;;1.40;99.90;;;;;;5024812;28;20033;-82
2022/03/03 08:14:41;;;;;;;56.37;31.40;;;1.60;99.90;;;;;;5025356;28;20041;-84
2022/03/03 08:17:08;;;;;;;56.97;31.43;;;1.70;99.90;;;;;;5047613;28;20409;-85
2022/03/03 08:19:34;;;;;;;53.37;29.30;;;1.80;99.90;;;;;;5021790;28;20045;-84
2022/03/03 08:22:00;;;;;;;55.70;30.47;;;1.90;99.90;;;;;;5031367;28;20048;-85
2022/03/03 08:24:26;;;;;;;56.60;31.23;;;2.00;99.90;;;;;;5024469;28;20041;-85
2022/03/03 08:26:55;;;;;;;55.23;30.13;;;2.10;99.90;;;;;;5023541;28;20049;-85
2022/03/03 08:29:21;;;;;;;55.33;30.60;;;2.20;99.90;;;;;;5011229;28;20033;-84
2022/03/03 08:31:54;;;;;;;51.07;30.23;;;2.30;99.90;;;;;;5027450;28;20044;-84
2022/03/03 08:34:33;;;;;;;53.88;29.67;;;2.40;99.90;;;;;;5036263;28;20076;-84
2022/03/03 08:37:03;;;;;;;51.60;30.30;;;2.50;99.90;;;;;;5031131;28;20087;-83
2022/03/03 08:39:30;;;;;;;55.13;29.63;;;2.60;99.90;;;;;;5033770;28;20041;-84
2022/03/03 08:41:58;;;;;;;52.80;30.60;;;2.80;99.90;;;;;;5036017;28;20033;-84
2022/03/03 08:44:32;;;;;;;50.13;28.47;;;2.90;99.90;;;;;;5031907;28;20045;-83
2022/03/03 08:46:59;;;;;;;49.30;29.08;;;3.00;99.90;;;;;;5032645;28;20068;-84
2022/03/03 08:49:31;;;;;;;53.03;28.57;;;3.20;99.90;;;;;;5033677;28;20045;-85
2022/03/03 08:51:57;;;;;;;46.73;26.83;;;3.30;99.90;;;;;;5032408;28;20043;-84
2022/03/03 08:54:23;;;;;;;48.33;28.37;;;3.40;99.90;;;;;;5035798;28;20467;-84
2022/03/03 08:56:48;;;;;;;43.23;25.90;;;3.50;99.90;;;;;;5006211;28;20033;-84
2022/03/03 08:59:14;;;;;;;46.83;28.73;;;3.60;99.90;;;;;;5012383;28;20063;-83
2022/03/03 09:01:40;;;;;;;46.58;26.63;;;3.70;99.90;;;;;;5017119;28;20417;-84
2022/03/03 09:04:06;;;;;;;43.38;26.67;;;3.80;99.90;;;;;;5016220;28;20033;-84
2022/03/03 09:06:33;;;;;;;44.33;27.20;;;3.90;99.90;;;;;;5035535;28;20127;-84
2022/03/03 09:08:58;;;;;;;46.85;26.98;;;4.00;99.90;;;;;;5006857;28;20053;-84
2022/03/03 09:11:24;;;;;;;45.10;26.05;;;4.10;99.90;;;;;;5008417;28;20427;-84
2022/03/03 09:13:50;;;;;;;47.78;27.25;;;4.20;99.90;;;;;;5015906;28;20534;-83
2022/03/03 09:16:17;;;;;;;42.92;26.27;;;4.30;99.90;;;;;;5003417;28;20487;-83
2022/03/03 09:18:44;;;;;;;41.97;24.90;;;4.40;99.90;;;;;;5017754;28;20037;-84
2022/03/03 09:21:10;;;;;;;41.10;26.00;;;4.40;99.90;;;;;;5031034;28;20029;-85
2022/03/03 09:23:35;;;;;;;42.55;26.65;;;4.50;99.90;;;;;;5036445;28;20041;-84
2022/03/03 09:26:01;;;;;;;40.13;24.73;;;4.60;99.90;;;;;;5016233;28;20046;-85
2022/03/03 09:28:27;;;;;;;41.00;25.40;;;4.60;99.90;;;;;;5016426;28;20069;-85
2022/03/03 09:30:52;;;;;;;41.33;26.38;;;4.70;99.90;;;;;;5012915;28;20036;-85
2022/03/03 09:33:18;;;;;;;43.78;26.73;;;4.70;99.90;;;;;;5011087;28;20033;-85
2022/03/03 09:35:43;;;;;;;42.40;25.23;;;4.90;99.90;;;;;;5016291;28;20045;-85
2022/03/03 09:38:09;;;;;;;43.88;25.60;;;4.90;99.90;;;;;;5035545;28;20045;-85
2022/03/03 09:40:34;;;;;;;42.55;25.55;;;5.00;99.90;;;;;;5036233;28;20033;-84
2022/03/03 09:43:03;;;;;;;41.13;25.58;;;5.00;99.90;;;;;;5000810;28;20029;-85
2022/03/03 09:45:29;;;;;;;40.95;25.10;;;5.10;99.90;;;;;;5019299;28;20037;-85
2022/03/03 09:47:57;;;;;;;42.13;25.67;;;5.20;99.90;;;;;;5005408;28;20038;-84
2022/03/03 09:50:25;;;;;;;40.38;25.00;;;5.30;99.90;;;;;;5015782;28;20069;-85
2022/03/03 09:52:50;;;;;;;42.75;23.88;;;5.30;99.90;;;;;;5011112;28;20036;-86
2022/03/03 09:55:17;;;;;;;39.88;24.23;;;5.50;99.90;;;;;;5025303;28;20040;-84
2022/03/03 09:57:42;;;;;;;38.42;24.38;;;5.50;99.90;;;;;;5038520;28;20067;-86
2022/03/03 10:00:11;;;;;;;36.90;23.52;;;5.60;99.90;;;;;;5039720;28;20072;-85
2022/03/03 10:03:09;;;;;;;35.10;23.27;;;5.70;99.90;;;;;;5043051;28;20036;-85
2022/03/03 10:05:35;;;;;;;34.20;21.63;;;5.90;99.90;;;;;;5035151;28;20041;-86
2022/03/03 10:08:03;;;;;;;31.63;20.75;;;6.00;99.90;;;;;;5035273;28;20120;-85
2022/03/03 10:10:29;;;;;;;35.10;22.40;;;6.10;99.90;;;;;;5030554;28;20056;-85
2022/03/03 10:12:57;;;;;;;33.13;22.10;;;6.10;99.90;;;;;;5047974;28;20041;-85
2022/03/03 10:15:26;;;;;;;32.78;21.48;;;6.20;99.90;;;;;;5034502;28;20045;-85
2022/03/03 10:17:59;;;;;;;32.63;21.48;;;6.40;99.90;;;;;;5035034;28;20037;-85
2022/03/03 10:20:26;;;;;;;30.15;19.35;;;6.50;99.90;;;;;;5035239;28;20048;-87
2022/03/03 10:22:57;;;;;;;33.28;19.58;;;6.50;99.90;;;;;;5035058;28;20037;-86
2022/03/03 10:25:42;;;;;;;30.85;18.85;;;6.70;99.90;;;;;;5034903;28;20111;-86
2022/03/03 10:28:23;;;;;;;29.77;20.17;;;6.80;99.90;;;;;;5034883;28;20037;-86
2022/03/03 10:31:00;;;;;;;26.80;18.35;;;6.80;99.90;;;;;;5034814;28;20136;-86
2022/03/03 10:33:31;;;;;;;26.77;18.20;;;6.90;99.90;;;;;;5034634;28;20073;-85
2022/03/03 10:36:01;;;;;;;29.60;18.63;;;7.00;99.90;;;;;;5033657;28;20037;-85
2022/03/03 10:38:27;;;;;;;28.08;18.60;;;7.00;99.90;;;;;;5020855;28;20041;-86
2022/03/03 10:40:52;;;;;;;29.05;19.13;;;7.10;99.90;;;;;;5034707;28;20554;-85
2022/03/03 10:43:18;;;;;;;28.05;19.05;;;7.20;99.90;;;;;;5038275;28;20033;-86
2022/03/03 10:45:54;;;;;;;27.02;18.20;;;7.30;99.90;;;;;;5039145;28;20033;-86
2022/03/03 10:48:25;;;;;;;24.80;17.02;;;7.40;99.90;;;;;;5034075;28;20048;-85
2022/03/03 10:50:54;;;;;;;24.27;16.85;;;7.50;99.90;;;;;;5051208;28;20371;-86
2022/03/03 10:53:24;;;;;;;29.30;18.27;;;7.60;99.90;;;;;;5029905;28;20090;-85
2022/03/03 10:56:12;;;;;;;25.05;17.77;;;7.70;99.90;;;;;;5036216;28;20041;-85
2022/03/03 10:58:52;;;;;;;26.55;17.48;;;7.80;99.90;;;;;;5034969;28;20119;-86
2022/03/03 11:01:27;;;;;;;26.75;18.33;;;7.90;99.90;;;;;;5020811;28;20479;-86
2022/03/03 11:03:53;;;;;;;28.70;18.33;;;7.90;99.90;;;;;;5027559;28;20037;-86
2022/03/03 11:06:29;;;;;;;26.60;17.95;;;8.00;99.90;;;;;;5016338;28;20029;-85
2022/03/03 11:08:56;;;;;;;26.08;17.00;;;8.10;99.90;;;;;;5034061;28;20044;-87
2022/03/03 11:11:24;;;;;;;27.10;18.30;;;8.10;99.90;;;;;;5033848;28;20072;-86
2022/03/03 11:13:51;;;;;;;23.02;17.38;;;8.20;99.90;;;;;;5033646;28;20394;-85
2022/03/03 11:16:23;;;;;;;25.10;18.05;;;8.20;99.90;;;;;;5034088;28;20029;-86
2022/03/03 11:18:49;;;;;;;25.70;18.15;;;8.20;99.90;;;;;;5017419;28;20032;-86
2022/03/03 11:21:16;;;;;;;26.40;17.80;;;8.30;99.90;;;;;;5033816;28;20037;-85
2022/03/03 11:23:44;;;;;;;26.83;18.85;;;8.30;99.90;;;;;;5017538;28;20074;-85
2022/03/03 11:26:23;;;;;;;26.83;17.80;;;8.40;99.90;;;;;;5044961;28;20047;-86
2022/03/03 11:29:02;;;;;;;26.35;18.02;;;8.40;99.90;;;;;;5042819;28;20155;-87
2022/03/03 11:31:33;;;;;;;28.20;17.92;;;8.50;99.90;;;;;;5040963;28;20040;-87
2022/03/03 11:34:38;;;;;;;28.13;18.55;;;8.60;99.90;;;;;;5033486;28;20052;-86
2022/03/03 11:37:19;;;;;;;24.65;17.42;;;8.70;99.90;;;;;;4989538;28;20052;-86
2022/03/03 11:39:53;;;;;;;25.67;17.52;;;8.80;99.90;;;;;;5044595;28;20039;-86
2022/03/03 11:42:28;;;;;;;24.75;18.02;;;8.90;99.90;;;;;;5034562;28;20041;-86
2022/03/03 11:45:13;;;;;;;23.20;16.33;;;8.90;99.90;;;;;;5028772;28;20106;-87
2022/03/03 11:47:46;;;;;;;25.33;17.42;;;8.90;99.90;;;;;;5023267;28;20059;-86
2022/03/03 11:50:18;;;;;;;24.42;16.65;;;9.10;99.90;;;;;;5031367;28;20097;-86
2022/03/03 11:52:52;;;;;;;25.92;17.80;;;9.20;99.90;;;;;;5013517;28;20079;-86
2022/03/03 11:55:29;;;;;;;25.13;17.55;;;9.20;99.90;;;;;;5014912;28;20147;-88
2022/03/03 11:58:00;;;;;;;25.40;18.42;;;9.30;99.90;;;;;;5011531;28;20088;-87
2022/03/03 12:00:27;;;;;;;26.08;17.02;;;9.30;99.90;;;;;;5031453;28;20060;-88
2022/03/03 12:03:00;;;;;;;26.05;16.90;;;9.40;99.90;;;;;;5032734;28;20048;-88
2022/03/03 12:05:36;;;;;;;28.40;18.38;;;9.50;99.90;;;;;;4998529;28;20037;-89
2022/03/03 12:08:12;;;;;;;28.75;18.50;;;9.50;99.90;;;;;;5013836;28;20444;-88
2022/03/03 12:10:58;;;;;;;25.02;17.67;;;9.60;99.90;;;;;;5027337;28;20507;-87
2022/03/03 12:13:27;;;;;;;22.77;16.60;;;9.70;99.90;;;;;;5015098;28;20046;-87
2022/03/03 12:16:12;;;;;;;24.90;17.50;;;9.80;99.90;;;;;;4997052;28;20132;-87
2022/03/03 12:18:39;;;;;;;25.35;17.85;;;9.80;99.90;;;;;;5031896;28;20087;-88
2022/03/03 12:21:25;;;;;;;27.05;18.42;;;10.00;99.90;;;;;;5017073;28;20049;-87
2022/03/03 12:24:10;;;;;;;25.88;18.50;;;10.00;99.90;;;;;;5020518;28;20038;-87
2022/03/03 12:26:51;;;;;;;26.27;18.17;;;10.10;99.90;;;;;;5029178;28;20086;-87
2022/03/03 12:29:34;;;;;;;25.50;17.30;;;10.10;99.90;;;;;;5030179;28;20479;-87
2022/03/03 12:32:25;;;;;;;26.20;18.00;;;10.20;99.90;;;;;;5013650;28;20044;-87
2022/03/03 12:34:52;;;;;;;24.23;17.20;;;10.40;99.90;;;;;;5029678;28;20041;-86
2022/03/03 12:37:17;;;;;;;23.33;17.25;;;10.50;99.90;;;;;;5013757;28;20507;-86
2022/03/03 12:39:55;;;;;;;23.88;17.00;;;10.70;99.90;;;;;;5030076;28;20033;-86
2022/03/03 12:42:26;;;;;;;25.80;17.08;;;10.70;99.90;;;;;;5030081;28;20120;-86